sensor_id;sensor_type;location;lat;lon;timestamp;P1;durP1;ratioP1;P2;durP2;ratioP2
76103;SDS011;64831;44.870;37.336;2022-11-09T00:01:29;50.42;;;20.58;;
76103;SDS011;64831;44.870;37.336;2022-11-09T00:03:57;49.47;;;18.75;;
76103;SDS011;64831;44.870;37.336;2022-11-09T00:06:24;36.67;;;13.88;;
76103;SDS011;64831;44.870;37.336;2022-11-09T00:08:52;49.83;;;18.00;;
76103;SDS011;64831;44.870;37.336;2022-11-09T00:11:19;50.85;;;19.95;;
76103;SDS011;64831;44.870;37.336;2022-11-09T00:13:45;54.83;;;21.25;;
76103;SDS011;64831;44.870;37.336;2022-11-09T00:16:13;52.47;;;21.08;;
76103;SDS011;64831;44.870;37.336;2022-11-09T00:18:40;41.53;;;17.35;;
76103;SDS011;64831;44.870;37.336;2022-11-09T00:21:16;43.72;;;18.05;;
76103;SDS011;64831;44.870;37.336;2022-11-09T00:23:44;48.53;;;18.70;;
76103;SDS011;64831;44.870;37.336;2022-11-09T00:26:11;53.13;;;20.35;;
76103;SDS011;64831;44.870;37.336;2022-11-09T00:28:38;48.65;;;19.63;;
76103;SDS011;64831;44.870;37.336;2022-11-09T00:31:05;55.90;;;20.83;;
76103;SDS011;64831;44.870;37.336;2022-11-09T00:33:36;52.25;;;21.13;;
76103;SDS011;64831;44.870;37.336;2022-11-09T00:36:04;55.50;;;21.52;;
76103;SDS011;64831;44.870;37.336;2022-11-09T00:38:34;57.22;;;23.15;;
76103;SDS011;64831;44.870;37.336;2022-11-09T00:41:03;53.85;;;22.27;;
76103;SDS011;64831;44.870;37.336;2022-11-09T00:43:30;54.85;;;20.65;;
76103;SDS011;64831;44.870;37.336;2022-11-09T00:45:57;56.25;;;21.50;;
76103;SDS011;64831;44.870;37.336;2022-11-09T00:48:23;47.05;;;18.88;;
76103;SDS011;64831;44.870;37.336;2022-11-09T00:50:50;52.08;;;20.13;;
76103;SDS011;64831;44.870;37.336;2022-11-09T00:53:17;52.65;;;20.70;;
76103;SDS011;64831;44.870;37.336;2022-11-09T00:55:51;60.55;;;22.95;;
76103;SDS011;64831;44.870;37.336;2022-11-09T00:58:20;46.40;;;18.35;;
76103;SDS011;64831;44.870;37.336;2022-11-09T01:00:47;55.55;;;21.92;;
76103;SDS011;64831;44.870;37.336;2022-11-09T01:03:13;52.83;;;21.95;;
76103;SDS011;64831;44.870;37.336;2022-11-09T01:05:40;35.15;;;14.55;;
76103;SDS011;64831;44.870;37.336;2022-11-09T01:08:08;42.42;;;15.73;;
76103;SDS011;64831;44.870;37.336;2022-11-09T01:10:34;34.78;;;13.85;;
76103;SDS011;64831;44.870;37.336;2022-11-09T01:13:00;35.65;;;12.70;;
76103;SDS011;64831;44.870;37.336;2022-11-09T01:15:26;22.38;;;8.35;;
76103;SDS011;64831;44.870;37.336;2022-11-09T01:17:54;27.38;;;12.35;;
76103;SDS011;64831;44.870;37.336;2022-11-09T01:20:22;31.40;;;11.13;;
76103;SDS011;64831;44.870;37.336;2022-11-09T01:22:47;31.80;;;12.65;;
76103;SDS011;64831;44.870;37.336;2022-11-09T01:25:13;31.60;;;12.45;;
76103;SDS011;64831;44.870;37.336;2022-11-09T01:27:39;35.10;;;13.00;;
76103;SDS011;64831;44.870;37.336;2022-11-09T01:30:06;26.50;;;11.68;;
76103;SDS011;64831;44.870;37.336;2022-11-09T01:32:32;31.08;;;12.30;;
76103;SDS011;64831;44.870;37.336;2022-11-09T01:34:58;28.05;;;12.27;;
76103;SDS011;64831;44.870;37.336;2022-11-09T01:37:24;25.80;;;10.48;;
76103;SDS011;64831;44.870;37.336;2022-11-09T01:39:50;34.10;;;12.00;;
76103;SDS011;64831;44.870;37.336;2022-11-09T01:42:21;29.55;;;12.02;;
76103;SDS011;64831;44.870;37.336;2022-11-09T01:44:48;35.47;;;13.18;;
76103;SDS011;64831;44.870;37.336;2022-11-09T01:48:05;24.55;;;9.63;;
76103;SDS011;64831;44.870;37.336;2022-11-09T01:50:50;33.97;;;12.50;;
76103;SDS011;64831;44.870;37.336;2022-11-09T01:53:26;25.23;;;10.68;;
76103;SDS011;64831;44.870;37.336;2022-11-09T01:55:55;25.67;;;9.75;;
76103;SDS011;64831;44.870;37.336;2022-11-09T01:58:25;27.92;;;11.38;;
76103;SDS011;64831;44.870;37.336;2022-11-09T02:00:55;33.78;;;12.23;;
76103;SDS011;64831;44.870;37.336;2022-11-09T02:03:30;29.73;;;11.63;;
76103;SDS011;64831;44.870;37.336;2022-11-09T02:06:00;37.30;;;12.95;;
76103;SDS011;64831;44.870;37.336;2022-11-09T02:08:30;33.72;;;12.95;;
76103;SDS011;64831;44.870;37.336;2022-11-09T02:11:04;37.38;;;13.80;;
76103;SDS011;64831;44.870;37.336;2022-11-09T02:13:44;40.03;;;14.93;;
76103;SDS011;64831;44.870;37.336;2022-11-09T02:16:14;30.27;;;11.88;;
76103;SDS011;64831;44.870;37.336;2022-11-09T02:18:47;38.30;;;14.00;;
76103;SDS011;64831;44.870;37.336;2022-11-09T02:21:22;39.28;;;15.10;;
76103;SDS011;64831;44.870;37.336;2022-11-09T02:23:53;46.63;;;17.20;;
76103;SDS011;64831;44.870;37.336;2022-11-09T02:26:29;43.42;;;15.55;;
76103;SDS011;64831;44.870;37.336;2022-11-09T02:29:00;49.75;;;16.33;;
76103;SDS011;64831;44.870;37.336;2022-11-09T02:31:30;38.65;;;14.57;;
76103;SDS011;64831;44.870;37.336;2022-11-09T02:34:01;39.92;;;14.77;;
76103;SDS011;64831;44.870;37.336;2022-11-09T02:36:36;41.90;;;15.07;;
76103;SDS011;64831;44.870;37.336;2022-11-09T02:39:05;42.10;;;14.38;;
76103;SDS011;64831;44.870;37.336;2022-11-09T02:41:31;38.80;;;15.10;;
76103;SDS011;64831;44.870;37.336;2022-11-09T02:44:03;32.30;;;13.35;;
76103;SDS011;64831;44.870;37.336;2022-11-09T02:46:31;34.03;;;13.10;;
76103;SDS011;64831;44.870;37.336;2022-11-09T02:48:59;35.53;;;11.67;;
76103;SDS011;64831;44.870;37.336;2022-11-09T02:51:26;28.63;;;11.20;;
76103;SDS011;64831;44.870;37.336;2022-11-09T02:53:52;32.58;;;11.63;;
76103;SDS011;64831;44.870;37.336;2022-11-09T02:56:20;29.58;;;11.60;;
76103;SDS011;64831;44.870;37.336;2022-11-09T02:58:46;31.17;;;11.38;;
76103;SDS011;64831;44.870;37.336;2022-11-09T03:01:12;30.73;;;11.80;;
76103;SDS011;64831;44.870;37.336;2022-11-09T03:03:38;27.02;;;10.75;;
76103;SDS011;64831;44.870;37.336;2022-11-09T03:06:04;28.40;;;10.80;;
76103;SDS011;64831;44.870;37.336;2022-11-09T03:08:30;22.15;;;10.20;;
76103;SDS011;64831;44.870;37.336;2022-11-09T03:10:58;26.23;;;10.48;;
76103;SDS011;64831;44.870;37.336;2022-11-09T03:13:24;28.60;;;10.40;;
76103;SDS011;64831;44.870;37.336;2022-11-09T03:15:51;29.65;;;11.20;;
76103;SDS011;64831;44.870;37.336;2022-11-09T03:18:17;28.50;;;10.30;;
76103;SDS011;64831;44.870;37.336;2022-11-09T03:20:43;27.40;;;10.60;;
76103;SDS011;64831;44.870;37.336;2022-11-09T03:23:09;29.83;;;11.32;;
76103;SDS011;64831;44.870;37.336;2022-11-09T03:25:36;31.05;;;10.90;;
76103;SDS011;64831;44.870;37.336;2022-11-09T03:28:04;31.83;;;11.80;;
76103;SDS011;64831;44.870;37.336;2022-11-09T03:30:32;29.30;;;11.00;;
76103;SDS011;64831;44.870;37.336;2022-11-09T03:32:59;31.15;;;11.57;;
76103;SDS011;64831;44.870;37.336;2022-11-09T03:35:28;28.93;;;10.73;;
76103;SDS011;64831;44.870;37.336;2022-11-09T03:37:55;33.33;;;11.35;;
76103;SDS011;64831;44.870;37.336;2022-11-09T03:40:22;28.80;;;11.63;;
76103;SDS011;64831;44.870;37.336;2022-11-09T03:42:50;32.67;;;11.90;;
76103;SDS011;64831;44.870;37.336;2022-11-09T03:45:16;24.92;;;10.88;;
76103;SDS011;64831;44.870;37.336;2022-11-09T03:47:42;30.25;;;13.40;;
76103;SDS011;64831;44.870;37.336;2022-11-09T03:50:09;29.10;;;10.85;;
76103;SDS011;64831;44.870;37.336;2022-11-09T03:52:36;26.75;;;9.90;;
76103;SDS011;64831;44.870;37.336;2022-11-09T03:55:03;31.33;;;11.80;;
76103;SDS011;64831;44.870;37.336;2022-11-09T03:57:29;25.50;;;9.32;;
76103;SDS011;64831;44.870;37.336;2022-11-09T03:59:55;26.42;;;10.82;;
76103;SDS011;64831;44.870;37.336;2022-11-09T04:02:21;25.92;;;10.38;;
76103;SDS011;64831;44.870;37.336;2022-11-09T04:04:47;28.60;;;11.48;;
76103;SDS011;64831;44.870;37.336;2022-11-09T04:07:13;21.63;;;8.43;;
76103;SDS011;64831;44.870;37.336;2022-11-09T04:09:40;27.77;;;9.85;;
76103;SDS011;64831;44.870;37.336;2022-11-09T04:12:06;30.75;;;11.27;;
76103;SDS011;64831;44.870;37.336;2022-11-09T04:14:32;24.77;;;9.05;;
76103;SDS011;64831;44.870;37.336;2022-11-09T04:16:58;30.08;;;11.07;;
76103;SDS011;64831;44.870;37.336;2022-11-09T04:19:24;30.70;;;11.25;;
76103;SDS011;64831;44.870;37.336;2022-11-09T04:21:49;29.75;;;11.95;;
76103;SDS011;64831;44.870;37.336;2022-11-09T04:24:16;28.90;;;10.18;;
76103;SDS011;64831;44.870;37.336;2022-11-09T04:26:42;27.70;;;10.05;;
76103;SDS011;64831;44.870;37.336;2022-11-09T04:29:08;33.58;;;12.13;;
76103;SDS011;64831;44.870;37.336;2022-11-09T04:31:35;30.13;;;11.60;;
76103;SDS011;64831;44.870;37.336;2022-11-09T04:34:01;26.98;;;9.95;;
76103;SDS011;64831;44.870;37.336;2022-11-09T04:36:27;27.55;;;11.02;;
76103;SDS011;64831;44.870;37.336;2022-11-09T04:38:53;28.80;;;11.85;;
76103;SDS011;64831;44.870;37.336;2022-11-09T04:41:19;27.63;;;11.10;;
76103;SDS011;64831;44.870;37.336;2022-11-09T04:43:45;26.65;;;10.20;;
76103;SDS011;64831;44.870;37.336;2022-11-09T04:46:11;31.27;;;12.18;;
76103;SDS011;64831;44.870;37.336;2022-11-09T04:48:37;32.85;;;11.95;;
76103;SDS011;64831;44.870;37.336;2022-11-09T04:51:06;32.13;;;11.57;;
76103;SDS011;64831;44.870;37.336;2022-11-09T04:53:35;32.65;;;11.32;;
76103;SDS011;64831;44.870;37.336;2022-11-09T04:56:02;33.05;;;11.07;;
76103;SDS011;64831;44.870;37.336;2022-11-09T04:58:29;29.83;;;11.23;;
76103;SDS011;64831;44.870;37.336;2022-11-09T05:01:00;28.75;;;10.80;;
76103;SDS011;64831;44.870;37.336;2022-11-09T05:03:33;28.35;;;10.48;;
76103;SDS011;64831;44.870;37.336;2022-11-09T05:05:59;24.20;;;10.60;;
76103;SDS011;64831;44.870;37.336;2022-11-09T05:08:25;27.63;;;10.23;;
76103;SDS011;64831;44.870;37.336;2022-11-09T05:10:55;25.35;;;9.63;;
76103;SDS011;64831;44.870;37.336;2022-11-09T05:13:24;24.27;;;9.52;;
76103;SDS011;64831;44.870;37.336;2022-11-09T05:15:50;29.65;;;10.85;;
76103;SDS011;64831;44.870;37.336;2022-11-09T05:18:16;22.92;;;9.45;;
76103;SDS011;64831;44.870;37.336;2022-11-09T05:20:42;26.73;;;10.20;;
76103;SDS011;64831;44.870;37.336;2022-11-09T05:23:08;24.40;;;9.57;;
76103;SDS011;64831;44.870;37.336;2022-11-09T05:25:52;25.55;;;10.13;;
76103;SDS011;64831;44.870;37.336;2022-11-09T05:28:18;20.80;;;8.15;;
76103;SDS011;64831;44.870;37.336;2022-11-09T05:30:44;27.33;;;9.80;;
76103;SDS011;64831;44.870;37.336;2022-11-09T05:33:10;17.67;;;7.20;;
76103;SDS011;64831;44.870;37.336;2022-11-09T05:35:36;24.80;;;9.95;;
76103;SDS011;64831;44.870;37.336;2022-11-09T05:38:02;19.40;;;8.70;;
76103;SDS011;64831;44.870;37.336;2022-11-09T05:40:28;27.48;;;9.45;;
76103;SDS011;64831;44.870;37.336;2022-11-09T05:42:54;19.02;;;8.68;;
76103;SDS011;64831;44.870;37.336;2022-11-09T05:45:20;23.50;;;8.90;;
76103;SDS011;64831;44.870;37.336;2022-11-09T05:47:46;22.85;;;8.77;;
76103;SDS011;64831;44.870;37.336;2022-11-09T05:50:13;20.75;;;9.25;;
76103;SDS011;64831;44.870;37.336;2022-11-09T05:52:40;20.77;;;8.57;;
76103;SDS011;64831;44.870;37.336;2022-11-09T05:55:06;25.60;;;11.10;;
76103;SDS011;64831;44.870;37.336;2022-11-09T05:57:32;20.05;;;10.07;;
76103;SDS011;64831;44.870;37.336;2022-11-09T05:59:59;18.13;;;8.20;;
76103;SDS011;64831;44.870;37.336;2022-11-09T06:02:24;23.23;;;10.55;;
76103;SDS011;64831;44.870;37.336;2022-11-09T06:04:57;22.25;;;9.23;;
76103;SDS011;64831;44.870;37.336;2022-11-09T06:07:24;26.15;;;12.00;;
76103;SDS011;64831;44.870;37.336;2022-11-09T06:09:50;31.35;;;10.63;;
76103;SDS011;64831;44.870;37.336;2022-11-09T06:12:16;22.10;;;10.10;;
76103;SDS011;64831;44.870;37.336;2022-11-09T06:14:42;28.33;;;11.38;;
76103;SDS011;64831;44.870;37.336;2022-11-09T06:17:08;24.42;;;10.45;;
76103;SDS011;64831;44.870;37.336;2022-11-09T06:19:33;24.92;;;10.65;;
76103;SDS011;64831;44.870;37.336;2022-11-09T06:21:59;27.52;;;11.38;;
76103;SDS011;64831;44.870;37.336;2022-11-09T06:24:25;22.67;;;10.02;;
76103;SDS011;64831;44.870;37.336;2022-11-09T06:26:51;28.95;;;11.50;;
76103;SDS011;64831;44.870;37.336;2022-11-09T06:29:17;28.45;;;12.40;;
76103;SDS011;64831;44.870;37.336;2022-11-09T06:31:44;28.45;;;12.20;;
76103;SDS011;64831;44.870;37.336;2022-11-09T06:34:10;32.75;;;10.65;;
76103;SDS011;64831;44.870;37.336;2022-11-09T06:36:36;27.58;;;11.23;;
76103;SDS011;64831;44.870;37.336;2022-11-09T06:39:02;27.60;;;11.35;;
76103;SDS011;64831;44.870;37.336;2022-11-09T06:41:28;29.38;;;11.35;;
76103;SDS011;64831;44.870;37.336;2022-11-09T06:43:54;29.50;;;12.10;;
76103;SDS011;64831;44.870;37.336;2022-11-09T06:46:20;24.67;;;9.32;;
76103;SDS011;64831;44.870;37.336;2022-11-09T06:48:46;28.27;;;11.18;;
76103;SDS011;64831;44.870;37.336;2022-11-09T06:51:12;30.45;;;11.27;;
76103;SDS011;64831;44.870;37.336;2022-11-09T06:53:38;26.42;;;10.40;;
76103;SDS011;64831;44.870;37.336;2022-11-09T06:56:05;25.90;;;12.20;;
76103;SDS011;64831;44.870;37.336;2022-11-09T06:58:33;33.20;;;10.80;;
76103;SDS011;64831;44.870;37.336;2022-11-09T07:00:59;25.90;;;9.35;;
76103;SDS011;64831;44.870;37.336;2022-11-09T07:03:34;25.88;;;11.57;;
76103;SDS011;64831;44.870;37.336;2022-11-09T07:06:03;23.13;;;7.82;;
76103;SDS011;64831;44.870;37.336;2022-11-09T07:11:01;19.85;;;8.52;;
76103;SDS011;64831;44.870;37.336;2022-11-09T07:13:37;25.48;;;9.82;;
76103;SDS011;64831;44.870;37.336;2022-11-09T07:16:04;26.98;;;10.88;;
76103;SDS011;64831;44.870;37.336;2022-11-09T07:18:31;22.42;;;9.60;;
76103;SDS011;64831;44.870;37.336;2022-11-09T07:20:58;22.42;;;9.85;;
76103;SDS011;64831;44.870;37.336;2022-11-09T07:23:24;22.92;;;8.85;;
76103;SDS011;64831;44.870;37.336;2022-11-09T07:25:50;21.05;;;9.05;;
76103;SDS011;64831;44.870;37.336;2022-11-09T07:28:16;21.58;;;9.35;;
76103;SDS011;64831;44.870;37.336;2022-11-09T07:30:43;22.98;;;9.90;;
76103;SDS011;64831;44.870;37.336;2022-11-09T07:33:14;21.60;;;9.50;;
76103;SDS011;64831;44.870;37.336;2022-11-09T07:35:44;27.05;;;11.13;;
76103;SDS011;64831;44.870;37.336;2022-11-09T07:38:11;26.25;;;10.27;;
76103;SDS011;64831;44.870;37.336;2022-11-09T07:40:38;24.33;;;10.25;;
76103;SDS011;64831;44.870;37.336;2022-11-09T07:43:05;27.80;;;11.60;;
76103;SDS011;64831;44.870;37.336;2022-11-09T07:45:32;20.77;;;8.68;;
76103;SDS011;64831;44.870;37.336;2022-11-09T07:48:00;24.65;;;10.52;;
76103;SDS011;64831;44.870;37.336;2022-11-09T07:50:28;25.40;;;11.63;;
76103;SDS011;64831;44.870;37.336;2022-11-09T07:52:56;20.88;;;9.27;;
76103;SDS011;64831;44.870;37.336;2022-11-09T07:55:23;19.45;;;8.68;;
76103;SDS011;64831;44.870;37.336;2022-11-09T07:58:00;25.77;;;11.45;;
76103;SDS011;64831;44.870;37.336;2022-11-09T08:00:29;25.52;;;10.43;;
76103;SDS011;64831;44.870;37.336;2022-11-09T08:02:56;22.60;;;10.05;;
76103;SDS011;64831;44.870;37.336;2022-11-09T08:05:22;23.95;;;10.93;;
76103;SDS011;64831;44.870;37.336;2022-11-09T08:07:53;19.42;;;8.98;;
76103;SDS011;64831;44.870;37.336;2022-11-09T08:10:20;19.55;;;8.25;;
76103;SDS011;64831;44.870;37.336;2022-11-09T08:12:51;24.27;;;9.65;;
76103;SDS011;64831;44.870;37.336;2022-11-09T08:15:18;23.08;;;9.05;;
76103;SDS011;64831;44.870;37.336;2022-11-09T08:17:45;26.63;;;10.13;;
76103;SDS011;64831;44.870;37.336;2022-11-09T08:20:10;24.88;;;10.45;;
76103;SDS011;64831;44.870;37.336;2022-11-09T08:22:40;29.40;;;12.63;;
76103;SDS011;64831;44.870;37.336;2022-11-09T08:25:07;24.80;;;9.23;;
76103;SDS011;64831;44.870;37.336;2022-11-09T08:27:34;26.02;;;9.95;;
76103;SDS011;64831;44.870;37.336;2022-11-09T08:33:00;21.83;;;9.43;;
76103;SDS011;64831;44.870;37.336;2022-11-09T08:35:27;20.17;;;9.02;;
76103;SDS011;64831;44.870;37.336;2022-11-09T08:37:53;28.52;;;11.23;;
76103;SDS011;64831;44.870;37.336;2022-11-09T08:40:21;19.65;;;8.30;;
76103;SDS011;64831;44.870;37.336;2022-11-09T08:42:49;25.63;;;9.70;;
76103;SDS011;64831;44.870;37.336;2022-11-09T08:45:16;29.80;;;10.05;;
76103;SDS011;64831;44.870;37.336;2022-11-09T08:47:43;25.17;;;9.88;;
76103;SDS011;64831;44.870;37.336;2022-11-09T08:50:10;29.40;;;12.25;;
76103;SDS011;64831;44.870;37.336;2022-11-09T08:52:36;25.30;;;9.80;;
76103;SDS011;64831;44.870;37.336;2022-11-09T08:55:03;23.75;;;9.70;;
76103;SDS011;64831;44.870;37.336;2022-11-09T08:57:29;22.65;;;9.07;;
76103;SDS011;64831;44.870;37.336;2022-11-09T08:59:56;26.13;;;9.25;;
76103;SDS011;64831;44.870;37.336;2022-11-09T09:02:22;24.85;;;10.90;;
76103;SDS011;64831;44.870;37.336;2022-11-09T09:04:48;27.48;;;11.23;;
76103;SDS011;64831;44.870;37.336;2022-11-09T09:07:13;32.50;;;11.70;;
76103;SDS011;64831;44.870;37.336;2022-11-09T09:09:39;28.23;;;11.75;;
76103;SDS011;64831;44.870;37.336;2022-11-09T09:12:06;29.35;;;11.27;;
76103;SDS011;64831;44.870;37.336;2022-11-09T09:14:33;28.27;;;11.45;;
76103;SDS011;64831;44.870;37.336;2022-11-09T09:16:59;27.27;;;11.00;;
76103;SDS011;64831;44.870;37.336;2022-11-09T09:19:25;27.17;;;11.15;;
76103;SDS011;64831;44.870;37.336;2022-11-09T09:21:52;26.75;;;11.60;;
76103;SDS011;64831;44.870;37.336;2022-11-09T09:24:18;33.17;;;12.60;;
76103;SDS011;64831;44.870;37.336;2022-11-09T09:26:44;35.22;;;13.00;;
76103;SDS011;64831;44.870;37.336;2022-11-09T09:29:11;31.67;;;12.65;;
76103;SDS011;64831;44.870;37.336;2022-11-09T09:31:38;36.28;;;13.30;;
76103;SDS011;64831;44.870;37.336;2022-11-09T09:34:04;28.05;;;11.63;;
76103;SDS011;64831;44.870;37.336;2022-11-09T09:36:30;27.58;;;11.80;;
76103;SDS011;64831;44.870;37.336;2022-11-09T09:38:56;34.55;;;13.60;;
76103;SDS011;64831;44.870;37.336;2022-11-09T09:41:24;31.63;;;11.57;;
76103;SDS011;64831;44.870;37.336;2022-11-09T09:49:37;29.52;;;11.02;;
76103;SDS011;64831;44.870;37.336;2022-11-09T09:57:54;31.45;;;9.73;;
76103;SDS011;64831;44.870;37.336;2022-11-09T10:00:26;25.00;;;11.00;;
76103;SDS011;64831;44.870;37.336;2022-11-09T10:02:53;24.92;;;10.20;;
76103;SDS011;64831;44.870;37.336;2022-11-09T10:05:24;31.42;;;11.70;;
76103;SDS011;64831;44.870;37.336;2022-11-09T10:11:29;28.05;;;11.27;;
76103;SDS011;64831;44.870;37.336;2022-11-09T10:17:36;27.98;;;11.23;;
76103;SDS011;64831;44.870;37.336;2022-11-09T10:25:36;30.98;;;10.52;;
76103;SDS011;64831;44.870;37.336;2022-11-09T10:28:08;25.52;;;10.20;;
76103;SDS011;64831;44.870;37.336;2022-11-09T10:30:37;26.73;;;10.75;;
76103;SDS011;64831;44.870;37.336;2022-11-09T10:33:11;28.85;;;11.38;;
76103;SDS011;64831;44.870;37.336;2022-11-09T10:38:36;26.38;;;11.45;;
76103;SDS011;64831;44.870;37.336;2022-11-09T10:41:27;29.73;;;11.75;;
76103;SDS011;64831;44.870;37.336;2022-11-09T10:44:15;32.92;;;13.13;;
76103;SDS011;64831;44.870;37.336;2022-11-09T10:52:50;34.45;;;11.98;;
76103;SDS011;64831;44.870;37.336;2022-11-09T10:55:34;27.08;;;10.65;;
76103;SDS011;64831;44.870;37.336;2022-11-09T10:58:28;32.85;;;12.07;;
76103;SDS011;64831;44.870;37.336;2022-11-09T11:01:23;31.73;;;11.68;;
76103;SDS011;64831;44.870;37.336;2022-11-09T11:04:17;30.83;;;12.27;;
76103;SDS011;64831;44.870;37.336;2022-11-09T11:07:14;33.58;;;10.95;;
76103;SDS011;64831;44.870;37.336;2022-11-09T11:15:44;41.25;;;13.38;;
76103;SDS011;64831;44.870;37.336;2022-11-09T11:18:29;38.92;;;14.25;;
76103;SDS011;64831;44.870;37.336;2022-11-09T11:21:18;37.67;;;13.95;;
76103;SDS011;64831;44.870;37.336;2022-11-09T11:24:17;39.22;;;14.13;;
76103;SDS011;64831;44.870;37.336;2022-11-09T11:27:09;34.33;;;13.43;;
76103;SDS011;64831;44.870;37.336;2022-11-09T11:32:54;36.28;;;13.88;;
76103;SDS011;64831;44.870;37.336;2022-11-09T11:35:41;35.33;;;14.15;;
76103;SDS011;64831;44.870;37.336;2022-11-09T11:38:35;35.03;;;13.45;;
76103;SDS011;64831;44.870;37.336;2022-11-09T11:51:08;32.08;;;13.95;;
76103;SDS011;64831;44.870;37.336;2022-11-09T11:54:12;30.85;;;12.23;;
76103;SDS011;64831;44.870;37.336;2022-11-09T12:00:11;36.40;;;14.35;;
76103;SDS011;64831;44.870;37.336;2022-11-09T12:16:12;40.83;;;13.65;;
76103;SDS011;64831;44.870;37.336;2022-11-09T12:19:29;37.92;;;12.95;;
76103;SDS011;64831;44.870;37.336;2022-11-09T12:25:32;43.72;;;14.32;;
76103;SDS011;64831;44.870;37.336;2022-11-09T12:28:43;36.00;;;13.80;;
76103;SDS011;64831;44.870;37.336;2022-11-09T12:31:42;35.38;;;14.02;;
76103;SDS011;64831;44.870;37.336;2022-11-09T12:38:03;40.22;;;14.30;;
76103;SDS011;64831;44.870;37.336;2022-11-09T12:40:57;37.72;;;14.65;;
76103;SDS011;64831;44.870;37.336;2022-11-09T12:43:52;36.47;;;12.52;;
76103;SDS011;64831;44.870;37.336;2022-11-09T12:46:39;38.85;;;14.95;;
76103;SDS011;64831;44.870;37.336;2022-11-09T12:49:33;38.80;;;14.48;;
76103;SDS011;64831;44.870;37.336;2022-11-09T12:52:24;32.67;;;13.25;;
76103;SDS011;64831;44.870;37.336;2022-11-09T12:55:21;38.08;;;14.35;;
76103;SDS011;64831;44.870;37.336;2022-11-09T12:58:28;35.35;;;14.45;;
76103;SDS011;64831;44.870;37.336;2022-11-09T13:04:18;38.78;;;13.32;;
76103;SDS011;64831;44.870;37.336;2022-11-09T13:09:53;38.38;;;15.00;;
76103;SDS011;64831;44.870;37.336;2022-11-09T13:12:39;35.83;;;11.40;;
76103;SDS011;64831;44.870;37.336;2022-11-09T13:15:26;37.45;;;14.23;;
76103;SDS011;64831;44.870;37.336;2022-11-09T13:30:38;36.75;;;14.52;;
76103;SDS011;64831;44.870;37.336;2022-11-09T13:33:26;34.95;;;14.25;;
76103;SDS011;64831;44.870;37.336;2022-11-09T13:36:13;36.60;;;14.98;;
76103;SDS011;64831;44.870;37.336;2022-11-09T13:39:32;35.78;;;14.35;;
76103;SDS011;64831;44.870;37.336;2022-11-09T13:42:31;35.55;;;13.70;;
76103;SDS011;64831;44.870;37.336;2022-11-09T13:48:04;33.67;;;12.88;;
76103;SDS011;64831;44.870;37.336;2022-11-09T13:50:53;34.55;;;12.82;;
76103;SDS011;64831;44.870;37.336;2022-11-09T13:53:51;36.40;;;14.27;;
76103;SDS011;64831;44.870;37.336;2022-11-09T13:56:38;35.50;;;14.55;;
76103;SDS011;64831;44.870;37.336;2022-11-09T14:02:23;47.92;;;16.55;;
76103;SDS011;64831;44.870;37.336;2022-11-09T14:05:28;36.30;;;14.90;;
76103;SDS011;64831;44.870;37.336;2022-11-09T14:08:20;36.20;;;14.45;;
76103;SDS011;64831;44.870;37.336;2022-11-09T14:18:46;34.65;;;13.25;;
76103;SDS011;64831;44.870;37.336;2022-11-09T14:21:32;31.10;;;12.45;;
76103;SDS011;64831;44.870;37.336;2022-11-09T14:24:26;39.38;;;15.57;;
76103;SDS011;64831;44.870;37.336;2022-11-09T14:27:19;36.75;;;15.40;;
76103;SDS011;64831;44.870;37.336;2022-11-09T14:30:19;38.38;;;15.13;;
76103;SDS011;64831;44.870;37.336;2022-11-09T14:36:09;35.20;;;13.48;;
76103;SDS011;64831;44.870;37.336;2022-11-09T14:38:56;30.02;;;12.27;;
76103;SDS011;64831;44.870;37.336;2022-11-09T14:41:43;43.97;;;15.35;;
76103;SDS011;64831;44.870;37.336;2022-11-09T14:44:29;42.17;;;15.13;;
76103;SDS011;64831;44.870;37.336;2022-11-09T14:47:20;34.72;;;14.68;;
76103;SDS011;64831;44.870;37.336;2022-11-09T14:50:23;39.88;;;16.17;;
76103;SDS011;64831;44.870;37.336;2022-11-09T14:56:09;42.63;;;17.45;;
76103;SDS011;64831;44.870;37.336;2022-11-09T14:58:56;90.10;;;29.77;;
76103;SDS011;64831;44.870;37.336;2022-11-09T15:01:55;68.57;;;26.90;;
76103;SDS011;64831;44.870;37.336;2022-11-09T15:07:43;33.05;;;13.77;;
76103;SDS011;64831;44.870;37.336;2022-11-09T15:10:29;49.03;;;20.00;;
76103;SDS011;64831;44.870;37.336;2022-11-09T15:13:15;45.83;;;17.00;;
76103;SDS011;64831;44.870;37.336;2022-11-09T15:16:02;49.83;;;20.95;;
76103;SDS011;64831;44.870;37.336;2022-11-09T15:18:49;39.15;;;16.77;;
76103;SDS011;64831;44.870;37.336;2022-11-09T15:21:35;37.80;;;14.15;;
76103;SDS011;64831;44.870;37.336;2022-11-09T15:24:21;41.42;;;16.90;;
76103;SDS011;64831;44.870;37.336;2022-11-09T15:27:27;50.45;;;20.90;;
76103;SDS011;64831;44.870;37.336;2022-11-09T15:30:29;35.15;;;13.10;;
76103;SDS011;64831;44.870;37.336;2022-11-09T15:36:31;43.70;;;17.77;;
76103;SDS011;64831;44.870;37.336;2022-11-09T15:39:18;41.40;;;15.85;;
76103;SDS011;64831;44.870;37.336;2022-11-09T15:42:05;48.78;;;19.90;;
76103;SDS011;64831;44.870;37.336;2022-11-09T15:44:53;39.72;;;16.73;;
76103;SDS011;64831;44.870;37.336;2022-11-09T15:47:39;36.75;;;12.85;;
76103;SDS011;64831;44.870;37.336;2022-11-09T15:50:25;47.90;;;18.60;;
76103;SDS011;64831;44.870;37.336;2022-11-09T15:53:12;46.65;;;16.48;;
76103;SDS011;64831;44.870;37.336;2022-11-09T15:55:59;41.78;;;15.90;;
76103;SDS011;64831;44.870;37.336;2022-11-09T15:58:45;46.00;;;16.67;;
76103;SDS011;64831;44.870;37.336;2022-11-09T16:01:32;49.05;;;18.42;;
76103;SDS011;64831;44.870;37.336;2022-11-09T16:04:17;43.47;;;17.17;;
76103;SDS011;64831;44.870;37.336;2022-11-09T16:07:02;39.72;;;14.60;;
76103;SDS011;64831;44.870;37.336;2022-11-09T16:09:46;45.97;;;17.52;;
76103;SDS011;64831;44.870;37.336;2022-11-09T16:12:31;47.05;;;17.35;;
76103;SDS011;64831;44.870;37.336;2022-11-09T16:15:22;44.47;;;14.55;;
76103;SDS011;64831;44.870;37.336;2022-11-09T16:18:07;31.98;;;14.40;;
76103;SDS011;64831;44.870;37.336;2022-11-09T16:20:52;50.83;;;19.65;;
76103;SDS011;64831;44.870;37.336;2022-11-09T16:23:36;54.65;;;21.27;;
76103;SDS011;64831;44.870;37.336;2022-11-09T16:26:21;57.20;;;21.30;;
76103;SDS011;64831;44.870;37.336;2022-11-09T16:29:06;56.30;;;21.13;;
76103;SDS011;64831;44.870;37.336;2022-11-09T16:31:50;57.63;;;22.52;;
76103;SDS011;64831;44.870;37.336;2022-11-09T16:34:39;46.35;;;20.13;;
76103;SDS011;64831;44.870;37.336;2022-11-09T16:37:24;60.90;;;23.23;;
76103;SDS011;64831;44.870;37.336;2022-11-09T16:40:12;45.50;;;18.90;;
76103;SDS011;64831;44.870;37.336;2022-11-09T16:43:02;50.70;;;20.52;;
76103;SDS011;64831;44.870;37.336;2022-11-09T16:45:47;57.75;;;21.38;;
76103;SDS011;64831;44.870;37.336;2022-11-09T16:48:33;53.08;;;20.23;;
76103;SDS011;64831;44.870;37.336;2022-11-09T16:51:18;53.42;;;21.98;;
76103;SDS011;64831;44.870;37.336;2022-11-09T16:54:03;52.10;;;23.17;;
76103;SDS011;64831;44.870;37.336;2022-11-09T16:56:49;54.95;;;21.15;;